Swinomish — WC5223 — position and weather

sailwx.info

Track history (hours):
 
Tides and Currents Weather Stations Pressure Air Temp Water Temp Dewpoint Dewpoint Depression Visibility Wind Speed Wind Dir Waves Ship Positions

Swinomish

Owner: DUNLAP TOWING CO, LA CONNER, WA. More information available from US FCC via Universal Licensing System and Coast Guard Vessel Documentation Center.

Last reported at 2015-Sep-02 01:33 UTC. Time now 2015-Sep-02 02:25 UTC.
Position N 47°59' W 122°13'.

Length 15 m; draft 3.5 m.

Type: Tug. MMSI: 366972050.

Date/timePositionNaut miles runAvg speedWind from/ knotsBaromVisibWave heightAir tempDewpointWater temp
2015-Sep-02 01:33N 47°59' W 122°13'9 9.1
2015-Sep-02 00:33N 48°04' W 122°25'0 0.0
2015-Aug-31 17:33N 48°04' W 122°25'9 9.0
2015-Aug-31 16:33N 47°59' W 122°14'0 0.3
2015-Aug-31 15:33N 47°59' W 122°13'0 0.1
2015-Aug-31 14:33N 47°59' W 122°13'0 0.0
2015-Aug-31 13:33N 47°59' W 122°13'0 0.0
2015-Aug-31 12:33N 47°59' W 122°13'0 0.0
2015-Aug-31 11:33N 47°59' W 122°13'0 0.0
2015-Aug-31 10:34N 47°59' W 122°13'0 0.0
2015-Aug-31 09:33N 47°59' W 122°13'0 0.0
2015-Aug-31 08:33N 47°59' W 122°13'1 0.8
2015-Aug-31 07:32N 47°59' W 122°14'1 1.4
2015-Aug-31 06:34N 47°58' W 122°16'2 1.6
2015-Aug-31 05:34N 47°57' W 122°18'2 1.6
2015-Aug-31 04:33N 47°56' W 122°19'2 1.9
2015-Aug-31 03:34N 47°54' W 122°20'2 2.2
2015-Aug-31 02:33N 47°53' W 122°23'1 1.2
2015-Aug-31 01:33N 47°53' W 122°25'1 0.8
2015-Aug-31 00:33N 47°53' W 122°26'2 1.6
2015-Aug-30 23:33N 47°54' W 122°28'2 2.1
2015-Aug-30 22:33N 47°55' W 122°31'5 4.4
2015-Aug-30 21:31N 47°58' W 122°36'10 2.3
2015-Aug-30 17:11N 48°06' W 122°44'1 0.0
2015-Aug-29 16:33N 48°05' W 122°45'5 0.4
2015-Aug-29 03:26N 48°09' W 122°50'1 1.0
2015-Aug-29 02:33N 48°08' W 122°51'1 1.2
2015-Aug-29 01:23N 48°07' W 122°53'0 0.5
2015-Aug-29 00:31N 48°07' W 122°53'2 1.5
2015-Aug-28 23:08N 48°06' W 122°56'1 1.9
2015-Aug-28 22:29N 48°07' W 122°58'2 2.0
2015-Aug-28 21:26N 48°08' W 123°01'2 2.1
2015-Aug-28 20:32N 48°09' W 123°03'2 2.3
2015-Aug-28 19:33N 48°11' W 123°05'3 3.1
2015-Aug-28 18:33N 48°11' W 123°09'2 2.4
2015-Aug-28 17:33N 48°09' W 123°12'2 1.9
2015-Aug-28 16:33N 48°08' W 123°15'1 1.3
2015-Aug-28 15:33N 48°08' W 123°16'1 1.1
2015-Aug-28 14:33N 48°08' W 123°18'1 1.2
2015-Aug-28 13:33N 48°07' W 123°20'1 1.2
2015-Aug-28 12:33N 48°07' W 123°22'2 1.7
2015-Aug-28 11:33N 48°08' W 123°24'2 2.2
2015-Aug-28 10:33N 48°08' W 123°27'0 0.2
2015-Aug-28 09:33N 48°08' W 123°27'0 0.0
2015-Aug-28 08:33N 48°08' W 123°27'0 0.0
2015-Aug-28 07:28N 48°08' W 123°27'0 0.0
2015-Aug-28 06:33N 48°08' W 123°27'0 0.0
2015-Aug-28 05:33N 48°08' W 123°27'0 0.0
2015-Aug-28 04:33N 48°08' W 123°28'0 0.0
2015-Aug-28 03:33N 48°08' W 123°27'1 1.0
2015-Aug-28 02:33N 48°08' W 123°26'1 1.0
2015-Aug-28 01:33N 48°08' W 123°27'0 0.0
2015-Aug-28 00:32N 48°08' W 123°27'0 0.0
2015-Aug-27 23:33N 48°08' W 123°27'0 0.0
2015-Aug-27 22:33N 48°08' W 123°27'0 0.1
2015-Aug-27 21:32N 48°08' W 123°27'1 0.6
2015-Aug-27 20:33N 48°08' W 123°27'1 0.6
2015-Aug-27 19:28N 48°08' W 123°27'0 0.0
2015-Aug-27 18:33N 48°08' W 123°27'0 0.0
2015-Aug-27 17:33N 48°08' W 123°27'0 0.0
2015-Aug-27 16:33N 48°08' W 123°27'0 0.1
2015-Aug-27 15:33N 48°08' W 123°27'0 0.0
2015-Aug-27 14:33N 48°08' W 123°27'2 1.7
2015-Aug-27 13:33N 48°08' W 123°25'7 6.9
2015-Aug-27 12:32N 48°09' W 123°15'7 6.4
2015-Aug-27 11:26N 48°11' W 123°05'20 5.0
2015-Aug-27 07:23N 48°01' W 122°39'4 5.1
2015-Aug-27 06:33N 47°57' W 122°36'5 4.8
2015-Aug-27 05:33N 47°54' W 122°30'5 5.4
2015-Aug-27 04:34N 47°53' W 122°22'6 5.6
2015-Aug-27 03:30N 47°58' W 122°17'3 3.0
2015-Aug-27 02:32N 47°59' W 122°13'2 1.7
2015-Aug-27 01:33N 47°58' W 122°15'3 3.2
2015-Aug-27 00:34N 47°56' W 122°19'3 3.2
2015-Aug-26 23:34N 47°53' W 122°21'4 3.8
2015-Aug-26 22:34N 47°50' W 122°24'4 3.6
2015-Aug-26 21:33N 47°46' W 122°25'3 2.9
2015-Aug-26 20:33N 47°44' W 122°26'3 2.7
2015-Aug-26 19:33N 47°42' W 122°29'3 3.4
2015-Aug-26 18:33N 47°38' W 122°29'3 3.2
2015-Aug-26 17:33N 47°35' W 122°28'3 3.2
2015-Aug-26 16:33N 47°32' W 122°29'5 4.7
2015-Aug-26 15:33N 47°27' W 122°31'5 4.9
2015-Aug-26 14:34N 47°22' W 122°32'4 3.7
2015-Aug-26 13:33N 47°19' W 122°30'3 3.4
2015-Aug-26 12:33N 47°17' W 122°26'1 0.9
2015-Aug-26 11:33N 47°18' W 122°27'4 4.3
2015-Aug-26 10:33N 47°19' W 122°33'5 5.2
2015-Aug-26 09:32N 47°14' W 122°34'3 0.9
2015-Aug-26 06:25N 47°14' W 122°39'0 0.1
2015-Aug-26 04:12N 47°14' W 122°39'2 2.9
2015-Aug-26 03:33N 47°12' W 122°38'7 3.1
2015-Aug-26 01:27N 47°11' W 122°48'6 0.5
2015-Aug-25 13:33N 47°11' W 122°39'1 1.4
2015-Aug-25 12:33N 47°13' W 122°38'1 1.2
2015-Aug-25 11:19N 47°14' W 122°39'0 0.1
2015-Aug-25 09:26N 47°14' W 122°39'0 0.1
2015-Aug-25 08:12N 47°14' W 122°39'2 0.9
2015-Aug-25 06:14N 47°13' W 122°37'2 2.5
2015-Aug-25 05:33N 47°14' W 122°35'3 2.9
2015-Aug-25 04:33N 47°16' W 122°33'2 2.2
2015-Aug-25 03:33N 47°18' W 122°33'1 1.3
2015-Aug-25 02:33N 47°19' W 122°31'1 0.9
2015-Aug-25 01:33N 47°18' W 122°30'1 1.0
2015-Aug-25 00:33N 47°18' W 122°29'0 0.4
2015-Aug-24 23:34N 47°17' W 122°28'1 0.5
2015-Aug-24 22:34N 47°18' W 122°29'0 0.5
2015-Aug-24 21:33N 47°18' W 122°30'1 0.5
2015-Aug-24 20:33N 47°18' W 122°30'2 1.7
2015-Aug-24 19:34N 47°20' W 122°28'2 1.9
2015-Aug-24 18:33N 47°21' W 122°26'2 1.8
2015-Aug-24 17:34N 47°22' W 122°24'2 1.8
2015-Aug-24 16:33N 47°23' W 122°22'2 2.0
2015-Aug-24 15:34N 47°25' W 122°24'2 1.6
2015-Aug-24 14:33N 47°26' W 122°25'2 1.6
2015-Aug-24 13:33N 47°28' W 122°26'1 1.5
2015-Aug-24 12:34N 47°29' W 122°26'1 1.4
2015-Aug-24 11:34N 47°31' W 122°27'1 1.5
2015-Aug-24 10:33N 47°32' W 122°27'1 1.2
2015-Aug-24 09:33N 47°33' W 122°28'2 1.5
2015-Aug-24 08:33N 47°35' W 122°28'2 1.6
2015-Aug-24 07:33N 47°36' W 122°29'2 1.7
2015-Aug-24 06:33N 47°38' W 122°29'2 1.9
2015-Aug-24 05:33N 47°40' W 122°29'2 1.7
2015-Aug-24 04:33N 47°41' W 122°29'2 1.6
2015-Aug-24 03:34N 47°43' W 122°29'2 2.0
2015-Aug-24 02:33N 47°45' W 122°28'2 2.0
2015-Aug-24 01:33N 47°46' W 122°26'2 1.8
2015-Aug-24 00:33N 47°48' W 122°25'2 1.7
2015-Aug-23 23:33N 47°49' W 122°24'2 1.6
2015-Aug-23 22:33N 47°51' W 122°23'2 1.9
2015-Aug-23 21:34N 47°53' W 122°22'2 2.2
2015-Aug-23 20:33N 47°55' W 122°21'2 2.0
2015-Aug-23 19:33N 47°57' W 122°20'2 1.8
2015-Aug-23 18:29N 47°58' W 122°18'2 1.8
2015-Aug-23 17:33N 47°58' W 122°15'1 1.4
2015-Aug-23 16:33N 47°59' W 122°13'0 0.1
2015-Aug-23 15:33N 47°59' W 122°13'0 0.4
2015-Aug-23 14:34N 47°59' W 122°14'1 1.2
2015-Aug-23 13:33N 47°59' W 122°16'2 1.5
2015-Aug-23 12:22N 48°01' W 122°17'3 1.8
2015-Aug-23 10:34N 48°02' W 122°21'2 2.2
2015-Aug-23 09:26N 48°04' W 122°24'2 2.1
2015-Aug-23 08:33N 48°05' W 122°26'10 2.0
2015-Aug-23 03:32N 48°13' W 122°34'2 2.0
2015-Aug-23 02:33N 48°15' W 122°33'  
Track history (hours):
 
Tides and Currents Weather Stations Pressure Air Temp Water Temp Dewpoint Dewpoint Depression Visibility Wind Speed Wind Dir Waves Ship Positions

Swinomish

Owner: DUNLAP TOWING CO, LA CONNER, WA. More information available from US FCC via Universal Licensing System and Coast Guard Vessel Documentation Center.

Last reported at 2015-Sep-02 01:33 UTC. Time now 2015-Sep-02 02:25 UTC.
Position N 47°59' W 122°13'.

Length 15 m; draft 3.5 m.

Type: Tug. MMSI: 366972050.

Date/timePositionNaut miles runAvg speedWind from/ knotsBaromVisibWave heightAir tempDewpointWater temp
2015-Sep-02 01:33N 47°59' W 122°13'9 9.1
2015-Sep-02 00:33N 48°04' W 122°25'0 0.0
2015-Aug-31 17:33N 48°04' W 122°25'9 9.0
2015-Aug-31 16:33N 47°59' W 122°14'0 0.3
2015-Aug-31 15:33N 47°59' W 122°13'0 0.1
2015-Aug-31 14:33N 47°59' W 122°13'0 0.0
2015-Aug-31 13:33N 47°59' W 122°13'0 0.0
2015-Aug-31 12:33N 47°59' W 122°13'0 0.0
2015-Aug-31 11:33N 47°59' W 122°13'0 0.0
2015-Aug-31 10:34N 47°59' W 122°13'0 0.0
2015-Aug-31 09:33N 47°59' W 122°13'0 0.0
2015-Aug-31 08:33N 47°59' W 122°13'1 0.8
2015-Aug-31 07:32N 47°59' W 122°14'1 1.4
2015-Aug-31 06:34N 47°58' W 122°16'2 1.6
2015-Aug-31 05:34N 47°57' W 122°18'2 1.6
2015-Aug-31 04:33N 47°56' W 122°19'2 1.9
2015-Aug-31 03:34N 47°54' W 122°20'2 2.2
2015-Aug-31 02:33N 47°53' W 122°23'1 1.2
2015-Aug-31 01:33N 47°53' W 122°25'1 0.8
2015-Aug-31 00:33N 47°53' W 122°26'2 1.6
2015-Aug-30 23:33N 47°54' W 122°28'2 2.1
2015-Aug-30 22:33N 47°55' W 122°31'5 4.4
2015-Aug-30 21:31N 47°58' W 122°36'10 2.3
2015-Aug-30 17:11N 48°06' W 122°44'1 0.0
2015-Aug-29 16:33N 48°05' W 122°45'5 0.4
2015-Aug-29 03:26N 48°09' W 122°50'1 1.0
2015-Aug-29 02:33N 48°08' W 122°51'1 1.2
2015-Aug-29 01:23N 48°07' W 122°53'0 0.5
2015-Aug-29 00:31N 48°07' W 122°53'2 1.5
2015-Aug-28 23:08N 48°06' W 122°56'1 1.9
2015-Aug-28 22:29N 48°07' W 122°58'2 2.0
2015-Aug-28 21:26N 48°08' W 123°01'2 2.1
2015-Aug-28 20:32N 48°09' W 123°03'2 2.3
2015-Aug-28 19:33N 48°11' W 123°05'3 3.1
2015-Aug-28 18:33N 48°11' W 123°09'2 2.4
2015-Aug-28 17:33N 48°09' W 123°12'2 1.9
2015-Aug-28 16:33N 48°08' W 123°15'1 1.3
2015-Aug-28 15:33N 48°08' W 123°16'1 1.1
2015-Aug-28 14:33N 48°08' W 123°18'1 1.2
2015-Aug-28 13:33N 48°07' W 123°20'1 1.2
2015-Aug-28 12:33N 48°07' W 123°22'2 1.7
2015-Aug-28 11:33N 48°08' W 123°24'2 2.2
2015-Aug-28 10:33N 48°08' W 123°27'0 0.2
2015-Aug-28 09:33N 48°08' W 123°27'0 0.0
2015-Aug-28 08:33N 48°08' W 123°27'0 0.0
2015-Aug-28 07:28N 48°08' W 123°27'0 0.0
2015-Aug-28 06:33N 48°08' W 123°27'0 0.0
2015-Aug-28 05:33N 48°08' W 123°27'0 0.0
2015-Aug-28 04:33N 48°08' W 123°28'0 0.0
2015-Aug-28 03:33N 48°08' W 123°27'1 1.0
2015-Aug-28 02:33N 48°08' W 123°26'1 1.0
2015-Aug-28 01:33N 48°08' W 123°27'0 0.0
2015-Aug-28 00:32N 48°08' W 123°27'0 0.0
2015-Aug-27 23:33N 48°08' W 123°27'0 0.0
2015-Aug-27 22:33N 48°08' W 123°27'0 0.1
2015-Aug-27 21:32N 48°08' W 123°27'1 0.6
2015-Aug-27 20:33N 48°08' W 123°27'1 0.6
2015-Aug-27 19:28N 48°08' W 123°27'0 0.0
2015-Aug-27 18:33N 48°08' W 123°27'0 0.0
2015-Aug-27 17:33N 48°08' W 123°27'0 0.0
2015-Aug-27 16:33N 48°08' W 123°27'0 0.1
2015-Aug-27 15:33N 48°08' W 123°27'0 0.0
2015-Aug-27 14:33N 48°08' W 123°27'2 1.7
2015-Aug-27 13:33N 48°08' W 123°25'7 6.9
2015-Aug-27 12:32N 48°09' W 123°15'7 6.4
2015-Aug-27 11:26N 48°11' W 123°05'20 5.0
2015-Aug-27 07:23N 48°01' W 122°39'4 5.1
2015-Aug-27 06:33N 47°57' W 122°36'5 4.8
2015-Aug-27 05:33N 47°54' W 122°30'5 5.4
2015-Aug-27 04:34N 47°53' W 122°22'6 5.6
2015-Aug-27 03:30N 47°58' W 122°17'3 3.0
2015-Aug-27 02:32N 47°59' W 122°13'2 1.7
2015-Aug-27 01:33N 47°58' W 122°15'3 3.2
2015-Aug-27 00:34N 47°56' W 122°19'3 3.2
2015-Aug-26 23:34N 47°53' W 122°21'4 3.8
2015-Aug-26 22:34N 47°50' W 122°24'4 3.6
2015-Aug-26 21:33N 47°46' W 122°25'3 2.9
2015-Aug-26 20:33N 47°44' W 122°26'3 2.7
2015-Aug-26 19:33N 47°42' W 122°29'3 3.4
2015-Aug-26 18:33N 47°38' W 122°29'3 3.2
2015-Aug-26 17:33N 47°35' W 122°28'3 3.2
2015-Aug-26 16:33N 47°32' W 122°29'5 4.7
2015-Aug-26 15:33N 47°27' W 122°31'5 4.9
2015-Aug-26 14:34N 47°22' W 122°32'4 3.7
2015-Aug-26 13:33N 47°19' W 122°30'3 3.4
2015-Aug-26 12:33N 47°17' W 122°26'1 0.9
2015-Aug-26 11:33N 47°18' W 122°27'4 4.3
2015-Aug-26 10:33N 47°19' W 122°33'5 5.2
2015-Aug-26 09:32N 47°14' W 122°34'3 0.9
2015-Aug-26 06:25N 47°14' W 122°39'0 0.1
2015-Aug-26 04:12N 47°14' W 122°39'2 2.9
2015-Aug-26 03:33N 47°12' W 122°38'7 3.1
2015-Aug-26 01:27N 47°11' W 122°48'6 0.5
2015-Aug-25 13:33N 47°11' W 122°39'1 1.4
2015-Aug-25 12:33N 47°13' W 122°38'1 1.2
2015-Aug-25 11:19N 47°14' W 122°39'0 0.1
2015-Aug-25 09:26N 47°14' W 122°39'0 0.1
2015-Aug-25 08:12N 47°14' W 122°39'2 0.9
2015-Aug-25 06:14N 47°13' W 122°37'2 2.5
2015-Aug-25 05:33N 47°14' W 122°35'3 2.9
2015-Aug-25 04:33N 47°16' W 122°33'2 2.2
2015-Aug-25 03:33N 47°18' W 122°33'1 1.3
2015-Aug-25 02:33N 47°19' W 122°31'1 0.9
2015-Aug-25 01:33N 47°18' W 122°30'1 1.0
2015-Aug-25 00:33N 47°18' W 122°29'0 0.4
2015-Aug-24 23:34N 47°17' W 122°28'1 0.5
2015-Aug-24 22:34N 47°18' W 122°29'0 0.5
2015-Aug-24 21:33N 47°18' W 122°30'1 0.5
2015-Aug-24 20:33N 47°18' W 122°30'2 1.7
2015-Aug-24 19:34N 47°20' W 122°28'2 1.9
2015-Aug-24 18:33N 47°21' W 122°26'2 1.8
2015-Aug-24 17:34N 47°22' W 122°24'2 1.8
2015-Aug-24 16:33N 47°23' W 122°22'2 2.0
2015-Aug-24 15:34N 47°25' W 122°24'2 1.6
2015-Aug-24 14:33N 47°26' W 122°25'2 1.6
2015-Aug-24 13:33N 47°28' W 122°26'1 1.5
2015-Aug-24 12:34N 47°29' W 122°26'1 1.4
2015-Aug-24 11:34N 47°31' W 122°27'1 1.5
2015-Aug-24 10:33N 47°32' W 122°27'1 1.2
2015-Aug-24 09:33N 47°33' W 122°28'2 1.5
2015-Aug-24 08:33N 47°35' W 122°28'2 1.6
2015-Aug-24 07:33N 47°36' W 122°29'2 1.7
2015-Aug-24 06:33N 47°38' W 122°29'2 1.9
2015-Aug-24 05:33N 47°40' W 122°29'2 1.7
2015-Aug-24 04:33N 47°41' W 122°29'2 1.6
2015-Aug-24 03:34N 47°43' W 122°29'2 2.0
2015-Aug-24 02:33N 47°45' W 122°28'2 2.0
2015-Aug-24 01:33N 47°46' W 122°26'2 1.8
2015-Aug-24 00:33N 47°48' W 122°25'2 1.7
2015-Aug-23 23:33N 47°49' W 122°24'2 1.6
2015-Aug-23 22:33N 47°51' W 122°23'2 1.9
2015-Aug-23 21:34N 47°53' W 122°22'2 2.2
2015-Aug-23 20:33N 47°55' W 122°21'2 2.0
2015-Aug-23 19:33N 47°57' W 122°20'2 1.8
2015-Aug-23 18:29N 47°58' W 122°18'2 1.8
2015-Aug-23 17:33N 47°58' W 122°15'1 1.4
2015-Aug-23 16:33N 47°59' W 122°13'0 0.1
2015-Aug-23 15:33N 47°59' W 122°13'0 0.4
2015-Aug-23 14:34N 47°59' W 122°14'1 1.2
2015-Aug-23 13:33N 47°59' W 122°16'2 1.5
2015-Aug-23 12:22N 48°01' W 122°17'3 1.8
2015-Aug-23 10:34N 48°02' W 122°21'2 2.2
2015-Aug-23 09:26N 48°04' W 122°24'2 2.1
2015-Aug-23 08:33N 48°05' W 122°26'10 2.0
2015-Aug-23 03:32N 48°13' W 122°34'2 2.0
2015-Aug-23 02:33N 48°15' W 122°33'  

Dump ship's entire track history